sensor_id;sensor_type;location;lat;lon;timestamp;P1;durP1;ratioP1;P2;durP2;ratioP2
64063;SDS011;50314;50.618;10.642;2023-11-21T00:01:05;1.80;;;1.05;;
64063;SDS011;50314;50.618;10.642;2023-11-21T00:03:33;1.45;;;1.27;;
64063;SDS011;50314;50.618;10.642;2023-11-21T00:06:05;0.98;;;0.82;;
64063;SDS011;50314;50.618;10.642;2023-11-21T00:08:34;1.27;;;0.90;;
64063;SDS011;50314;50.618;10.642;2023-11-21T00:11:00;1.13;;;1.02;;
64063;SDS011;50314;50.618;10.642;2023-11-21T00:13:32;1.48;;;1.15;;
64063;SDS011;50314;50.618;10.642;2023-11-21T00:16:06;1.33;;;1.08;;
64063;SDS011;50314;50.618;10.642;2023-11-21T00:18:40;1.77;;;1.15;;
64063;SDS011;50314;50.618;10.642;2023-11-21T00:21:05;1.17;;;0.88;;
64063;SDS011;50314;50.618;10.642;2023-11-21T00:23:34;1.00;;;0.98;;
64063;SDS011;50314;50.618;10.642;2023-11-21T00:26:00;0.90;;;0.80;;
64063;SDS011;50314;50.618;10.642;2023-11-21T00:28:26;1.13;;;1.00;;
64063;SDS011;50314;50.618;10.642;2023-11-21T00:30:59;0.95;;;0.88;;
64063;SDS011;50314;50.618;10.642;2023-11-21T00:33:24;0.73;;;0.73;;
64063;SDS011;50314;50.618;10.642;2023-11-21T00:35:50;1.10;;;1.00;;
64063;SDS011;50314;50.618;10.642;2023-11-21T00:38:26;1.10;;;0.93;;
64063;SDS011;50314;50.618;10.642;2023-11-21T00:40:52;1.42;;;1.10;;
64063;SDS011;50314;50.618;10.642;2023-11-21T00:43:21;1.00;;;0.77;;
64063;SDS011;50314;50.618;10.642;2023-11-21T00:45:48;1.23;;;0.95;;
64063;SDS011;50314;50.618;10.642;2023-11-21T00:48:16;1.40;;;0.90;;
64063;SDS011;50314;50.618;10.642;2023-11-21T00:50:45;1.17;;;0.80;;
64063;SDS011;50314;50.618;10.642;2023-11-21T00:53:11;0.88;;;0.88;;
64063;SDS011;50314;50.618;10.642;2023-11-21T00:55:37;1.42;;;0.88;;
64063;SDS011;50314;50.618;10.642;2023-11-21T00:58:05;0.85;;;0.68;;
64063;SDS011;50314;50.618;10.642;2023-11-21T01:00:32;1.60;;;1.00;;
64063;SDS011;50314;50.618;10.642;2023-11-21T01:03:10;1.17;;;0.77;;
64063;SDS011;50314;50.618;10.642;2023-11-21T01:05:36;1.17;;;0.80;;
64063;SDS011;50314;50.618;10.642;2023-11-21T01:08:07;0.98;;;0.98;;
64063;SDS011;50314;50.618;10.642;2023-11-21T01:10:33;1.33;;;0.73;;
64063;SDS011;50314;50.618;10.642;2023-11-21T01:12:59;1.20;;;0.90;;
64063;SDS011;50314;50.618;10.642;2023-11-21T01:15:27;2.53;;;1.20;;
64063;SDS011;50314;50.618;10.642;2023-11-21T01:18:04;1.23;;;1.08;;
64063;SDS011;50314;50.618;10.642;2023-11-21T01:20:52;1.00;;;0.88;;
64063;SDS011;50314;50.618;10.642;2023-11-21T01:23:25;1.30;;;0.82;;
64063;SDS011;50314;50.618;10.642;2023-11-21T01:25:55;1.13;;;0.98;;
64063;SDS011;50314;50.618;10.642;2023-11-21T01:28:33;0.98;;;0.90;;
64063;SDS011;50314;50.618;10.642;2023-11-21T01:30:59;0.80;;;0.80;;
64063;SDS011;50314;50.618;10.642;2023-11-21T01:33:25;1.05;;;0.80;;
64063;SDS011;50314;50.618;10.642;2023-11-21T01:35:50;1.17;;;0.77;;
64063;SDS011;50314;50.618;10.642;2023-11-21T01:38:20;1.10;;;1.00;;
64063;SDS011;50314;50.618;10.642;2023-11-21T01:40:50;1.30;;;1.00;;
64063;SDS011;50314;50.618;10.642;2023-11-21T01:43:28;1.13;;;0.88;;
64063;SDS011;50314;50.618;10.642;2023-11-21T01:46:00;1.98;;;1.20;;
64063;SDS011;50314;50.618;10.642;2023-11-21T01:48:34;1.00;;;0.80;;
64063;SDS011;50314;50.618;10.642;2023-11-21T01:51:02;1.17;;;0.90;;
64063;SDS011;50314;50.618;10.642;2023-11-21T01:56:20;1.13;;;1.05;;
64063;SDS011;50314;50.618;10.642;2023-11-21T01:58:51;0.82;;;0.82;;
64063;SDS011;50314;50.618;10.642;2023-11-21T02:01:55;1.67;;;0.90;;
64063;SDS011;50314;50.618;10.642;2023-11-21T02:04:26;1.00;;;0.93;;
64063;SDS011;50314;50.618;10.642;2023-11-21T02:07:29;0.57;;;0.50;;
64063;SDS011;50314;50.618;10.642;2023-11-21T02:12:59;1.08;;;0.80;;
64063;SDS011;50314;50.618;10.642;2023-11-21T02:15:30;0.60;;;0.60;;
64063;SDS011;50314;50.618;10.642;2023-11-21T02:18:15;1.30;;;1.20;;
64063;SDS011;50314;50.618;10.642;2023-11-21T02:20:47;0.82;;;0.80;;
64063;SDS011;50314;50.618;10.642;2023-11-21T02:23:26;1.25;;;1.00;;
64063;SDS011;50314;50.618;10.642;2023-11-21T02:25:58;0.95;;;0.88;;
64063;SDS011;50314;50.618;10.642;2023-11-21T02:28:24;0.85;;;0.63;;
64063;SDS011;50314;50.618;10.642;2023-11-21T02:31:10;0.60;;;0.60;;
64063;SDS011;50314;50.618;10.642;2023-11-21T02:36:08;1.17;;;1.08;;
64063;SDS011;50314;50.618;10.642;2023-11-21T02:38:34;0.82;;;0.70;;
64063;SDS011;50314;50.618;10.642;2023-11-21T02:41:02;0.88;;;0.77;;
64063;SDS011;50314;50.618;10.642;2023-11-21T02:43:29;1.38;;;1.10;;
64063;SDS011;50314;50.618;10.642;2023-11-21T02:45:54;0.65;;;0.65;;
64063;SDS011;50314;50.618;10.642;2023-11-21T02:48:20;0.80;;;0.80;;
64063;SDS011;50314;50.618;10.642;2023-11-21T02:50:49;1.35;;;0.70;;
64063;SDS011;50314;50.618;10.642;2023-11-21T02:53:15;0.82;;;0.80;;
64063;SDS011;50314;50.618;10.642;2023-11-21T02:55:41;1.02;;;0.68;;
64063;SDS011;50314;50.618;10.642;2023-11-21T03:01:11;0.47;;;0.47;;
64063;SDS011;50314;50.618;10.642;2023-11-21T03:04:11;1.00;;;1.00;;
64063;SDS011;50314;50.618;10.642;2023-11-21T03:07:04;0.75;;;0.73;;
64063;SDS011;50314;50.618;10.642;2023-11-21T03:09:30;0.80;;;0.65;;
64063;SDS011;50314;50.618;10.642;2023-11-21T03:11:58;0.68;;;0.57;;
64063;SDS011;50314;50.618;10.642;2023-11-21T03:14:44;0.77;;;0.77;;
64063;SDS011;50314;50.618;10.642;2023-11-21T03:17:10;0.85;;;0.68;;
64063;SDS011;50314;50.618;10.642;2023-11-21T03:19:42;0.98;;;0.82;;
64063;SDS011;50314;50.618;10.642;2023-11-21T03:22:07;1.20;;;0.90;;
64063;SDS011;50314;50.618;10.642;2023-11-21T03:24:40;0.80;;;0.80;;
64063;SDS011;50314;50.618;10.642;2023-11-21T03:27:06;0.60;;;0.60;;
64063;SDS011;50314;50.618;10.642;2023-11-21T03:29:31;0.90;;;0.85;;
64063;SDS011;50314;50.618;10.642;2023-11-21T03:31:59;0.95;;;0.68;;
64063;SDS011;50314;50.618;10.642;2023-11-21T03:34:28;0.98;;;0.80;;
64063;SDS011;50314;50.618;10.642;2023-11-21T03:37:01;0.55;;;0.55;;
64063;SDS011;50314;50.618;10.642;2023-11-21T03:39:27;0.82;;;0.80;;
64063;SDS011;50314;50.618;10.642;2023-11-21T03:41:54;0.77;;;0.70;;
64063;SDS011;50314;50.618;10.642;2023-11-21T03:44:41;0.68;;;0.68;;
64063;SDS011;50314;50.618;10.642;2023-11-21T03:47:09;0.85;;;0.60;;
64063;SDS011;50314;50.618;10.642;2023-11-21T03:49:38;0.70;;;0.65;;
64063;SDS011;50314;50.618;10.642;2023-11-21T03:52:12;0.60;;;0.60;;
64063;SDS011;50314;50.618;10.642;2023-11-21T03:54:46;1.00;;;1.00;;
64063;SDS011;50314;50.618;10.642;2023-11-21T03:57:32;0.95;;;0.93;;
64063;SDS011;50314;50.618;10.642;2023-11-21T04:00:03;1.40;;;0.70;;
64063;SDS011;50314;50.618;10.642;2023-11-21T04:02:34;0.60;;;0.50;;
64063;SDS011;50314;50.618;10.642;2023-11-21T04:05:00;0.95;;;0.68;;
64063;SDS011;50314;50.618;10.642;2023-11-21T04:07:25;1.02;;;0.70;;
64063;SDS011;50314;50.618;10.642;2023-11-21T04:12:40;0.70;;;0.70;;
64063;SDS011;50314;50.618;10.642;2023-11-21T04:15:06;0.77;;;0.77;;
64063;SDS011;50314;50.618;10.642;2023-11-21T04:17:36;0.93;;;0.93;;
64063;SDS011;50314;50.618;10.642;2023-11-21T04:20:10;1.05;;;0.85;;
64063;SDS011;50314;50.618;10.642;2023-11-21T04:23:02;1.00;;;0.90;;
64063;SDS011;50314;50.618;10.642;2023-11-21T04:25:28;0.95;;;0.60;;
64063;SDS011;50314;50.618;10.642;2023-11-21T04:27:57;0.70;;;0.68;;
64063;SDS011;50314;50.618;10.642;2023-11-21T04:30:55;0.60;;;0.60;;
64063;SDS011;50314;50.618;10.642;2023-11-21T04:33:20;0.65;;;0.65;;
64063;SDS011;50314;50.618;10.642;2023-11-21T04:35:47;0.65;;;0.65;;
64063;SDS011;50314;50.618;10.642;2023-11-21T04:38:16;0.57;;;0.57;;
64063;SDS011;50314;50.618;10.642;2023-11-21T04:40:50;0.85;;;0.85;;
64063;SDS011;50314;50.618;10.642;2023-11-21T04:43:16;0.60;;;0.60;;
64063;SDS011;50314;50.618;10.642;2023-11-21T04:45:41;0.90;;;0.90;;
64063;SDS011;50314;50.618;10.642;2023-11-21T04:48:09;0.57;;;0.57;;
64063;SDS011;50314;50.618;10.642;2023-11-21T04:50:35;0.88;;;0.85;;
64063;SDS011;50314;50.618;10.642;2023-11-21T04:53:03;0.93;;;0.80;;
64063;SDS011;50314;50.618;10.642;2023-11-21T04:55:44;0.60;;;0.60;;
64063;SDS011;50314;50.618;10.642;2023-11-21T04:58:15;0.80;;;0.80;;
64063;SDS011;50314;50.618;10.642;2023-11-21T05:00:43;0.57;;;0.50;;
64063;SDS011;50314;50.618;10.642;2023-11-21T05:03:11;0.50;;;0.50;;
64063;SDS011;50314;50.618;10.642;2023-11-21T05:05:37;0.77;;;0.73;;
64063;SDS011;50314;50.618;10.642;2023-11-21T05:08:12;0.88;;;0.88;;
64063;SDS011;50314;50.618;10.642;2023-11-21T05:10:57;1.55;;;0.70;;
64063;SDS011;50314;50.618;10.642;2023-11-21T05:13:26;0.47;;;0.47;;
64063;SDS011;50314;50.618;10.642;2023-11-21T05:15:53;0.57;;;0.55;;
64063;SDS011;50314;50.618;10.642;2023-11-21T05:18:26;1.13;;;0.88;;
64063;SDS011;50314;50.618;10.642;2023-11-21T05:20:52;0.93;;;0.50;;
64063;SDS011;50314;50.618;10.642;2023-11-21T05:23:27;1.00;;;0.75;;
64063;SDS011;50314;50.618;10.642;2023-11-21T05:25:53;0.93;;;0.82;;
64063;SDS011;50314;50.618;10.642;2023-11-21T05:28:19;0.77;;;0.77;;
64063;SDS011;50314;50.618;10.642;2023-11-21T05:34:07;0.70;;;0.65;;
64063;SDS011;50314;50.618;10.642;2023-11-21T05:36:35;0.57;;;0.50;;
64063;SDS011;50314;50.618;10.642;2023-11-21T05:39:06;1.50;;;0.60;;
64063;SDS011;50314;50.618;10.642;2023-11-21T05:41:32;0.60;;;0.60;;
64063;SDS011;50314;50.618;10.642;2023-11-21T05:44:00;0.60;;;0.60;;
64063;SDS011;50314;50.618;10.642;2023-11-21T05:46:27;0.73;;;0.50;;
64063;SDS011;50314;50.618;10.642;2023-11-21T05:48:52;0.60;;;0.60;;
64063;SDS011;50314;50.618;10.642;2023-11-21T05:51:18;1.02;;;0.98;;
64063;SDS011;50314;50.618;10.642;2023-11-21T05:53:46;0.85;;;0.85;;
64063;SDS011;50314;50.618;10.642;2023-11-21T05:56:14;0.60;;;0.60;;
64063;SDS011;50314;50.618;10.642;2023-11-21T05:58:49;1.00;;;0.88;;
64063;SDS011;50314;50.618;10.642;2023-11-21T06:01:28;0.80;;;0.80;;
64063;SDS011;50314;50.618;10.642;2023-11-21T06:03:54;1.13;;;0.88;;
64063;SDS011;50314;50.618;10.642;2023-11-21T06:06:28;0.50;;;0.50;;
64063;SDS011;50314;50.618;10.642;2023-11-21T06:08:54;0.55;;;0.50;;
64063;SDS011;50314;50.618;10.642;2023-11-21T06:11:35;0.60;;;0.60;;
64063;SDS011;50314;50.618;10.642;2023-11-21T06:14:01;0.50;;;0.50;;
64063;SDS011;50314;50.618;10.642;2023-11-21T06:16:27;0.82;;;0.60;;
64063;SDS011;50314;50.618;10.642;2023-11-21T06:18:53;1.38;;;0.82;;
64063;SDS011;50314;50.618;10.642;2023-11-21T06:21:18;0.70;;;0.70;;
64063;SDS011;50314;50.618;10.642;2023-11-21T06:23:51;0.90;;;0.68;;
64063;SDS011;50314;50.618;10.642;2023-11-21T06:28:51;0.82;;;0.60;;
64063;SDS011;50314;50.618;10.642;2023-11-21T06:31:28;0.70;;;0.70;;
64063;SDS011;50314;50.618;10.642;2023-11-21T06:33:58;0.63;;;0.50;;
64063;SDS011;50314;50.618;10.642;2023-11-21T06:36:37;0.47;;;0.47;;
64063;SDS011;50314;50.618;10.642;2023-11-21T06:39:25;0.95;;;0.95;;
64063;SDS011;50314;50.618;10.642;2023-11-21T06:41:58;0.95;;;0.95;;
64063;SDS011;50314;50.618;10.642;2023-11-21T06:44:25;0.52;;;0.50;;
64063;SDS011;50314;50.618;10.642;2023-11-21T06:47:18;0.70;;;0.70;;
64063;SDS011;50314;50.618;10.642;2023-11-21T06:49:54;0.50;;;0.50;;
64063;SDS011;50314;50.618;10.642;2023-11-21T06:53:08;1.35;;;0.95;;
64063;SDS011;50314;50.618;10.642;2023-11-21T06:55:37;1.38;;;0.68;;
64063;SDS011;50314;50.618;10.642;2023-11-21T07:01:05;0.80;;;0.80;;
64063;SDS011;50314;50.618;10.642;2023-11-21T07:03:48;0.77;;;0.77;;
64063;SDS011;50314;50.618;10.642;2023-11-21T07:06:43;0.77;;;0.77;;
64063;SDS011;50314;50.618;10.642;2023-11-21T07:09:27;0.85;;;0.85;;
64063;SDS011;50314;50.618;10.642;2023-11-21T07:11:55;0.98;;;0.98;;
64063;SDS011;50314;50.618;10.642;2023-11-21T07:14:21;0.57;;;0.57;;
64063;SDS011;50314;50.618;10.642;2023-11-21T07:16:47;0.75;;;0.75;;
64063;SDS011;50314;50.618;10.642;2023-11-21T07:19:13;0.63;;;0.55;;
64063;SDS011;50314;50.618;10.642;2023-11-21T07:21:38;0.88;;;0.88;;
64063;SDS011;50314;50.618;10.642;2023-11-21T07:24:05;0.60;;;0.60;;
64063;SDS011;50314;50.618;10.642;2023-11-21T07:26:31;0.60;;;0.50;;
64063;SDS011;50314;50.618;10.642;2023-11-21T07:29:01;0.57;;;0.57;;
64063;SDS011;50314;50.618;10.642;2023-11-21T07:31:29;0.80;;;0.70;;
64063;SDS011;50314;50.618;10.642;2023-11-21T07:33:58;1.48;;;0.85;;
64063;SDS011;50314;50.618;10.642;2023-11-21T07:36:26;0.73;;;0.70;;
64063;SDS011;50314;50.618;10.642;2023-11-21T07:39:13;1.02;;;0.90;;
64063;SDS011;50314;50.618;10.642;2023-11-21T07:41:41;1.13;;;1.02;;
64063;SDS011;50314;50.618;10.642;2023-11-21T07:44:16;0.50;;;0.50;;
64063;SDS011;50314;50.618;10.642;2023-11-21T07:46:42;1.00;;;0.60;;
64063;SDS011;50314;50.618;10.642;2023-11-21T07:49:09;1.25;;;0.47;;
64063;SDS011;50314;50.618;10.642;2023-11-21T07:51:35;0.70;;;0.70;;
64063;SDS011;50314;50.618;10.642;2023-11-21T07:54:00;0.68;;;0.63;;
64063;SDS011;50314;50.618;10.642;2023-11-21T07:56:26;0.47;;;0.47;;
64063;SDS011;50314;50.618;10.642;2023-11-21T07:58:51;0.90;;;0.70;;
64063;SDS011;50314;50.618;10.642;2023-11-21T08:01:17;0.68;;;0.65;;
64063;SDS011;50314;50.618;10.642;2023-11-21T08:03:42;1.10;;;0.65;;
64063;SDS011;50314;50.618;10.642;2023-11-21T08:06:09;0.93;;;0.77;;
64063;SDS011;50314;50.618;10.642;2023-11-21T08:08:35;1.10;;;1.00;;
64063;SDS011;50314;50.618;10.642;2023-11-21T08:11:03;1.20;;;0.70;;
64063;SDS011;50314;50.618;10.642;2023-11-21T08:13:33;0.80;;;0.80;;
64063;SDS011;50314;50.618;10.642;2023-11-21T08:16:01;0.77;;;0.77;;
64063;SDS011;50314;50.618;10.642;2023-11-21T08:18:29;0.88;;;0.80;;
64063;SDS011;50314;50.618;10.642;2023-11-21T08:20:57;1.00;;;0.77;;
64063;SDS011;50314;50.618;10.642;2023-11-21T08:23:23;0.85;;;0.70;;
64063;SDS011;50314;50.618;10.642;2023-11-21T08:25:54;1.02;;;0.93;;
64063;SDS011;50314;50.618;10.642;2023-11-21T08:28:20;1.35;;;0.57;;
64063;SDS011;50314;50.618;10.642;2023-11-21T08:30:54;0.73;;;0.68;;
64063;SDS011;50314;50.618;10.642;2023-11-21T08:33:19;0.80;;;0.77;;
64063;SDS011;50314;50.618;10.642;2023-11-21T08:35:45;0.63;;;0.63;;
64063;SDS011;50314;50.618;10.642;2023-11-21T08:38:11;0.90;;;0.90;;
64063;SDS011;50314;50.618;10.642;2023-11-21T08:40:37;0.70;;;0.70;;
64063;SDS011;50314;50.618;10.642;2023-11-21T08:43:03;1.00;;;0.90;;
64063;SDS011;50314;50.618;10.642;2023-11-21T08:45:29;0.77;;;0.77;;
64063;SDS011;50314;50.618;10.642;2023-11-21T08:47:56;0.85;;;0.52;;
64063;SDS011;50314;50.618;10.642;2023-11-21T08:50:21;1.15;;;0.90;;
64063;SDS011;50314;50.618;10.642;2023-11-21T08:52:48;1.10;;;0.85;;
64063;SDS011;50314;50.618;10.642;2023-11-21T08:55:14;1.05;;;0.90;;
64063;SDS011;50314;50.618;10.642;2023-11-21T08:57:40;2.25;;;1.23;;
64063;SDS011;50314;50.618;10.642;2023-11-21T09:00:08;4.38;;;1.42;;
64063;SDS011;50314;50.618;10.642;2023-11-21T09:02:37;1.80;;;1.20;;
64063;SDS011;50314;50.618;10.642;2023-11-21T09:05:06;2.25;;;1.35;;
64063;SDS011;50314;50.618;10.642;2023-11-21T09:07:34;1.90;;;1.20;;
64063;SDS011;50314;50.618;10.642;2023-11-21T09:10:00;1.17;;;1.08;;
64063;SDS011;50314;50.618;10.642;2023-11-21T09:12:27;2.78;;;1.50;;
64063;SDS011;50314;50.618;10.642;2023-11-21T09:14:52;3.03;;;1.33;;
64063;SDS011;50314;50.618;10.642;2023-11-21T09:17:18;2.25;;;1.38;;
64063;SDS011;50314;50.618;10.642;2023-11-21T09:19:44;2.83;;;1.27;;
64063;SDS011;50314;50.618;10.642;2023-11-21T09:22:12;1.70;;;1.13;;
64063;SDS011;50314;50.618;10.642;2023-11-21T09:24:37;1.45;;;0.98;;
64063;SDS011;50314;50.618;10.642;2023-11-21T09:27:03;1.33;;;1.17;;
64063;SDS011;50314;50.618;10.642;2023-11-21T09:29:30;1.48;;;0.82;;
64063;SDS011;50314;50.618;10.642;2023-11-21T09:31:57;1.45;;;1.00;;
64063;SDS011;50314;50.618;10.642;2023-11-21T09:34:24;1.70;;;1.02;;
64063;SDS011;50314;50.618;10.642;2023-11-21T09:36:51;1.40;;;1.10;;
64063;SDS011;50314;50.618;10.642;2023-11-21T09:39:16;1.63;;;0.98;;
64063;SDS011;50314;50.618;10.642;2023-11-21T09:41:49;1.50;;;1.23;;
64063;SDS011;50314;50.618;10.642;2023-11-21T09:44:30;1.58;;;1.00;;
64063;SDS011;50314;50.618;10.642;2023-11-21T09:47:00;2.75;;;1.27;;
64063;SDS011;50314;50.618;10.642;2023-11-21T09:49:27;1.20;;;1.10;;
64063;SDS011;50314;50.618;10.642;2023-11-21T09:51:57;2.25;;;0.90;;
64063;SDS011;50314;50.618;10.642;2023-11-21T09:54:28;1.67;;;1.50;;
64063;SDS011;50314;50.618;10.642;2023-11-21T09:56:56;1.35;;;1.23;;
64063;SDS011;50314;50.618;10.642;2023-11-21T09:59:23;1.80;;;1.23;;
64063;SDS011;50314;50.618;10.642;2023-11-21T10:01:49;1.95;;;1.10;;
64063;SDS011;50314;50.618;10.642;2023-11-21T10:04:15;1.08;;;0.98;;
64063;SDS011;50314;50.618;10.642;2023-11-21T10:06:42;1.17;;;0.95;;
64063;SDS011;50314;50.618;10.642;2023-11-21T10:09:11;2.08;;;1.38;;
64063;SDS011;50314;50.618;10.642;2023-11-21T10:11:42;2.55;;;1.30;;
64063;SDS011;50314;50.618;10.642;2023-11-21T10:14:11;1.50;;;1.10;;
64063;SDS011;50314;50.618;10.642;2023-11-21T10:16:38;5.78;;;1.83;;
64063;SDS011;50314;50.618;10.642;2023-11-21T10:19:04;2.03;;;1.27;;
64063;SDS011;50314;50.618;10.642;2023-11-21T10:21:33;1.73;;;1.10;;
64063;SDS011;50314;50.618;10.642;2023-11-21T10:23:59;1.42;;;0.90;;
64063;SDS011;50314;50.618;10.642;2023-11-21T10:26:25;2.03;;;1.27;;
64063;SDS011;50314;50.618;10.642;2023-11-21T10:28:59;2.42;;;1.45;;
64063;SDS011;50314;50.618;10.642;2023-11-21T10:31:29;2.95;;;1.50;;
64063;SDS011;50314;50.618;10.642;2023-11-21T10:34:11;2.20;;;1.38;;
64063;SDS011;50314;50.618;10.642;2023-11-21T10:36:43;2.35;;;1.55;;
64063;SDS011;50314;50.618;10.642;2023-11-21T10:39:13;2.75;;;1.17;;
64063;SDS011;50314;50.618;10.642;2023-11-21T10:41:52;2.22;;;1.38;;
64063;SDS011;50314;50.618;10.642;2023-11-21T10:44:17;3.42;;;1.30;;
64063;SDS011;50314;50.618;10.642;2023-11-21T10:46:49;1.60;;;1.25;;
64063;SDS011;50314;50.618;10.642;2023-11-21T10:51:45;2.17;;;1.38;;
64063;SDS011;50314;50.618;10.642;2023-11-21T10:54:10;3.15;;;1.48;;
64063;SDS011;50314;50.618;10.642;2023-11-21T10:56:38;2.42;;;1.55;;
64063;SDS011;50314;50.618;10.642;2023-11-21T10:59:08;2.85;;;1.63;;
64063;SDS011;50314;50.618;10.642;2023-11-21T11:01:40;2.33;;;1.50;;
64063;SDS011;50314;50.618;10.642;2023-11-21T11:04:08;2.13;;;1.38;;
64063;SDS011;50314;50.618;10.642;2023-11-21T11:06:42;3.22;;;1.60;;
64063;SDS011;50314;50.618;10.642;2023-11-21T11:09:10;3.78;;;1.70;;
64063;SDS011;50314;50.618;10.642;2023-11-21T11:11:42;2.88;;;1.60;;
64063;SDS011;50314;50.618;10.642;2023-11-21T11:14:11;2.60;;;1.55;;
64063;SDS011;50314;50.618;10.642;2023-11-21T11:16:41;3.00;;;1.60;;
64063;SDS011;50314;50.618;10.642;2023-11-21T11:19:08;2.42;;;1.30;;
64063;SDS011;50314;50.618;10.642;2023-11-21T11:21:52;3.58;;;1.70;;
64063;SDS011;50314;50.618;10.642;2023-11-21T11:35:01;3.88;;;1.90;;
64063;SDS011;50314;50.618;10.642;2023-11-21T11:37:32;2.42;;;1.70;;
64063;SDS011;50314;50.618;10.642;2023-11-21T11:39:58;2.42;;;1.60;;
64063;SDS011;50314;50.618;10.642;2023-11-21T11:42:24;1.67;;;1.45;;
64063;SDS011;50314;50.618;10.642;2023-11-21T11:44:52;2.80;;;1.75;;
64063;SDS011;50314;50.618;10.642;2023-11-21T11:47:23;2.83;;;1.73;;
64063;SDS011;50314;50.618;10.642;2023-11-21T11:52:48;3.85;;;1.75;;
64063;SDS011;50314;50.618;10.642;2023-11-21T11:55:20;3.60;;;1.70;;
64063;SDS011;50314;50.618;10.642;2023-11-21T12:00:17;3.08;;;1.88;;
64063;SDS011;50314;50.618;10.642;2023-11-21T12:02:51;4.97;;;2.20;;
64063;SDS011;50314;50.618;10.642;2023-11-21T12:05:19;2.60;;;1.70;;
64063;SDS011;50314;50.618;10.642;2023-11-21T12:07:52;2.88;;;1.73;;
64063;SDS011;50314;50.618;10.642;2023-11-21T12:12:59;4.35;;;2.00;;
64063;SDS011;50314;50.618;10.642;2023-11-21T12:15:27;3.92;;;1.80;;
64063;SDS011;50314;50.618;10.642;2023-11-21T12:17:56;2.38;;;1.83;;
64063;SDS011;50314;50.618;10.642;2023-11-21T12:22:54;2.85;;;1.70;;
64063;SDS011;50314;50.618;10.642;2023-11-21T12:25:24;4.72;;;1.90;;
64063;SDS011;50314;50.618;10.642;2023-11-21T12:27:57;4.00;;;2.00;;
64063;SDS011;50314;50.618;10.642;2023-11-21T12:30:24;3.50;;;1.98;;
64063;SDS011;50314;50.618;10.642;2023-11-21T12:32:54;5.18;;;2.45;;
64063;SDS011;50314;50.618;10.642;2023-11-21T12:35:30;3.25;;;2.15;;
64063;SDS011;50314;50.618;10.642;2023-11-21T12:37:59;3.45;;;2.00;;
64063;SDS011;50314;50.618;10.642;2023-11-21T12:40:25;4.68;;;2.60;;
64063;SDS011;50314;50.618;10.642;2023-11-21T12:42:57;5.30;;;2.83;;
64063;SDS011;50314;50.618;10.642;2023-11-21T12:45:24;10.82;;;2.83;;
64063;SDS011;50314;50.618;10.642;2023-11-21T12:48:02;6.85;;;2.60;;
64063;SDS011;50314;50.618;10.642;2023-11-21T12:50:33;4.32;;;2.38;;
64063;SDS011;50314;50.618;10.642;2023-11-21T12:53:02;7.18;;;2.92;;
64063;SDS011;50314;50.618;10.642;2023-11-21T12:55:34;4.55;;;2.92;;
64063;SDS011;50314;50.618;10.642;2023-11-21T12:58:04;5.25;;;3.05;;
64063;SDS011;50314;50.618;10.642;2023-11-21T13:00:38;3.83;;;2.17;;
64063;SDS011;50314;50.618;10.642;2023-11-21T13:03:08;3.60;;;2.08;;
64063;SDS011;50314;50.618;10.642;2023-11-21T13:05:37;3.15;;;1.90;;
64063;SDS011;50314;50.618;10.642;2023-11-21T13:10:33;3.72;;;2.28;;
64063;SDS011;50314;50.618;10.642;2023-11-21T13:13:05;3.53;;;2.10;;
64063;SDS011;50314;50.618;10.642;2023-11-21T13:15:38;2.85;;;1.77;;
64063;SDS011;50314;50.618;10.642;2023-11-21T13:18:06;3.75;;;2.00;;
64063;SDS011;50314;50.618;10.642;2023-11-21T13:20:32;3.90;;;2.00;;
64063;SDS011;50314;50.618;10.642;2023-11-21T13:22:58;2.83;;;2.25;;
64063;SDS011;50314;50.618;10.642;2023-11-21T13:25:26;2.50;;;1.70;;
64063;SDS011;50314;50.618;10.642;2023-11-21T13:27:55;3.00;;;1.95;;
64063;SDS011;50314;50.618;10.642;2023-11-21T13:30:21;3.70;;;2.25;;
64063;SDS011;50314;50.618;10.642;2023-11-21T13:33:02;4.28;;;2.58;;
64063;SDS011;50314;50.618;10.642;2023-11-21T13:35:31;5.15;;;3.22;;
64063;SDS011;50314;50.618;10.642;2023-11-21T13:38:03;4.03;;;2.83;;
64063;SDS011;50314;50.618;10.642;2023-11-21T13:42:59;5.22;;;2.92;;
64063;SDS011;50314;50.618;10.642;2023-11-21T13:45:29;4.78;;;3.20;;
64063;SDS011;50314;50.618;10.642;2023-11-21T13:47:55;6.15;;;3.33;;
64063;SDS011;50314;50.618;10.642;2023-11-21T13:50:23;6.28;;;3.53;;
64063;SDS011;50314;50.618;10.642;2023-11-21T13:52:58;6.65;;;3.58;;
64063;SDS011;50314;50.618;10.642;2023-11-21T13:55:30;7.32;;;4.03;;
64063;SDS011;50314;50.618;10.642;2023-11-21T13:57:56;7.30;;;3.70;;
64063;SDS011;50314;50.618;10.642;2023-11-21T14:00:21;8.57;;;4.40;;
64063;SDS011;50314;50.618;10.642;2023-11-21T14:03:07;8.07;;;4.53;;
64063;SDS011;50314;50.618;10.642;2023-11-21T14:05:41;7.95;;;4.40;;
64063;SDS011;50314;50.618;10.642;2023-11-21T14:08:08;7.03;;;3.95;;
64063;SDS011;50314;50.618;10.642;2023-11-21T14:10:35;8.73;;;4.25;;
64063;SDS011;50314;50.618;10.642;2023-11-21T14:13:26;6.82;;;3.80;;
64063;SDS011;50314;50.618;10.642;2023-11-21T14:15:52;6.97;;;4.30;;
64063;SDS011;50314;50.618;10.642;2023-11-21T14:18:23;6.57;;;3.50;;
64063;SDS011;50314;50.618;10.642;2023-11-21T14:20:56;5.53;;;3.42;;
64063;SDS011;50314;50.618;10.642;2023-11-21T14:23:22;6.28;;;3.60;;
64063;SDS011;50314;50.618;10.642;2023-11-21T14:25:48;5.72;;;3.75;;
64063;SDS011;50314;50.618;10.642;2023-11-21T14:28:17;5.60;;;3.45;;
64063;SDS011;50314;50.618;10.642;2023-11-21T14:30:47;4.95;;;3.13;;
64063;SDS011;50314;50.618;10.642;2023-11-21T14:33:13;5.65;;;3.65;;
64063;SDS011;50314;50.618;10.642;2023-11-21T14:35:38;5.40;;;2.92;;
64063;SDS011;50314;50.618;10.642;2023-11-21T14:38:04;5.85;;;3.28;;
64063;SDS011;50314;50.618;10.642;2023-11-21T14:40:33;5.07;;;3.13;;
64063;SDS011;50314;50.618;10.642;2023-11-21T14:43:01;4.50;;;2.95;;
64063;SDS011;50314;50.618;10.642;2023-11-21T14:45:33;4.88;;;2.90;;
64063;SDS011;50314;50.618;10.642;2023-11-21T14:47:59;4.15;;;2.67;;
64063;SDS011;50314;50.618;10.642;2023-11-21T14:50:41;4.43;;;2.75;;
64063;SDS011;50314;50.618;10.642;2023-11-21T14:53:11;4.57;;;2.90;;
64063;SDS011;50314;50.618;10.642;2023-11-21T14:55:38;3.40;;;2.47;;
64063;SDS011;50314;50.618;10.642;2023-11-21T14:58:16;3.70;;;2.55;;
64063;SDS011;50314;50.618;10.642;2023-11-21T15:00:57;4.30;;;2.58;;
64063;SDS011;50314;50.618;10.642;2023-11-21T15:03:27;3.67;;;2.50;;
64063;SDS011;50314;50.618;10.642;2023-11-21T15:06:00;4.07;;;2.55;;
64063;SDS011;50314;50.618;10.642;2023-11-21T15:08:43;4.47;;;2.53;;
64063;SDS011;50314;50.618;10.642;2023-11-21T15:11:13;4.47;;;2.33;;
64063;SDS011;50314;50.618;10.642;2023-11-21T15:13:41;3.33;;;2.35;;
64063;SDS011;50314;50.618;10.642;2023-11-21T15:16:07;3.53;;;2.25;;
64063;SDS011;50314;50.618;10.642;2023-11-21T15:18:37;2.97;;;2.25;;
64063;SDS011;50314;50.618;10.642;2023-11-21T15:21:03;3.13;;;2.28;;
64063;SDS011;50314;50.618;10.642;2023-11-21T15:23:29;2.80;;;1.95;;
64063;SDS011;50314;50.618;10.642;2023-11-21T15:25:56;3.00;;;1.90;;
64063;SDS011;50314;50.618;10.642;2023-11-21T15:28:22;2.08;;;1.48;;
64063;SDS011;50314;50.618;10.642;2023-11-21T15:30:51;2.08;;;1.65;;
64063;SDS011;50314;50.618;10.642;2023-11-21T15:33:17;1.95;;;1.40;;
64063;SDS011;50314;50.618;10.642;2023-11-21T15:35:45;1.92;;;1.42;;
64063;SDS011;50314;50.618;10.642;2023-11-21T15:38:13;2.95;;;1.45;;
64063;SDS011;50314;50.618;10.642;2023-11-21T15:40:39;1.63;;;1.05;;
64063;SDS011;50314;50.618;10.642;2023-11-21T15:43:04;1.48;;;1.00;;